sensor_id;sensor_type;location;lat;lon;timestamp;P1;durP1;ratioP1;P2;durP2;ratioP2
57573;SDS011;68988;49.000;21.242;2023-04-24T00:01:22;0.60;;;0.60;;
57573;SDS011;68988;49.000;21.242;2023-04-24T00:03:48;0.75;;;0.75;;
57573;SDS011;68988;49.000;21.242;2023-04-24T00:06:14;0.60;;;0.60;;
57573;SDS011;68988;49.000;21.242;2023-04-24T00:08:42;0.70;;;0.70;;
57573;SDS011;68988;49.000;21.242;2023-04-24T00:11:07;0.70;;;0.70;;
57573;SDS011;68988;49.000;21.242;2023-04-24T00:13:34;0.52;;;0.52;;
57573;SDS011;68988;49.000;21.242;2023-04-24T00:15:59;0.68;;;0.68;;
57573;SDS011;68988;49.000;21.242;2023-04-24T00:18:25;0.65;;;0.65;;
57573;SDS011;68988;49.000;21.242;2023-04-24T00:20:50;0.50;;;0.50;;
57573;SDS011;68988;49.000;21.242;2023-04-24T00:23:16;0.70;;;0.70;;
57573;SDS011;68988;49.000;21.242;2023-04-24T00:25:41;0.60;;;0.60;;
57573;SDS011;68988;49.000;21.242;2023-04-24T00:28:07;0.68;;;0.68;;
57573;SDS011;68988;49.000;21.242;2023-04-24T00:30:32;0.75;;;0.70;;
57573;SDS011;68988;49.000;21.242;2023-04-24T00:32:57;0.50;;;0.50;;
57573;SDS011;68988;49.000;21.242;2023-04-24T00:35:23;0.60;;;0.60;;
57573;SDS011;68988;49.000;21.242;2023-04-24T00:37:48;0.60;;;0.60;;
57573;SDS011;68988;49.000;21.242;2023-04-24T00:40:14;0.70;;;0.70;;
57573;SDS011;68988;49.000;21.242;2023-04-24T00:42:40;0.60;;;0.60;;
57573;SDS011;68988;49.000;21.242;2023-04-24T00:45:06;0.60;;;0.60;;
57573;SDS011;68988;49.000;21.242;2023-04-24T00:47:35;0.85;;;0.85;;
57573;SDS011;68988;49.000;21.242;2023-04-24T00:50:04;0.80;;;0.80;;
57573;SDS011;68988;49.000;21.242;2023-04-24T00:52:31;0.73;;;0.73;;
57573;SDS011;68988;49.000;21.242;2023-04-24T00:54:57;0.70;;;0.70;;
57573;SDS011;68988;49.000;21.242;2023-04-24T00:57:23;0.85;;;0.60;;
57573;SDS011;68988;49.000;21.242;2023-04-24T00:59:49;0.80;;;0.80;;
57573;SDS011;68988;49.000;21.242;2023-04-24T01:02:15;0.70;;;0.70;;
57573;SDS011;68988;49.000;21.242;2023-04-24T01:04:41;0.65;;;0.65;;
57573;SDS011;68988;49.000;21.242;2023-04-24T01:07:07;0.55;;;0.55;;
57573;SDS011;68988;49.000;21.242;2023-04-24T01:09:36;0.93;;;0.60;;
57573;SDS011;68988;49.000;21.242;2023-04-24T01:12:03;0.60;;;0.60;;
57573;SDS011;68988;49.000;21.242;2023-04-24T01:14:28;0.68;;;0.68;;
57573;SDS011;68988;49.000;21.242;2023-04-24T01:16:55;0.82;;;0.82;;
57573;SDS011;68988;49.000;21.242;2023-04-24T01:19:22;0.60;;;0.60;;
57573;SDS011;68988;49.000;21.242;2023-04-24T01:21:48;0.80;;;0.80;;
57573;SDS011;68988;49.000;21.242;2023-04-24T01:24:18;0.80;;;0.80;;
57573;SDS011;68988;49.000;21.242;2023-04-24T01:26:44;0.88;;;0.88;;
57573;SDS011;68988;49.000;21.242;2023-04-24T01:29:10;0.60;;;0.60;;
57573;SDS011;68988;49.000;21.242;2023-04-24T01:31:36;0.80;;;0.80;;
57573;SDS011;68988;49.000;21.242;2023-04-24T01:34:02;0.70;;;0.70;;
57573;SDS011;68988;49.000;21.242;2023-04-24T01:36:27;0.70;;;0.70;;
57573;SDS011;68988;49.000;21.242;2023-04-24T01:38:54;0.68;;;0.68;;
57573;SDS011;68988;49.000;21.242;2023-04-24T01:41:19;0.80;;;0.80;;
57573;SDS011;68988;49.000;21.242;2023-04-24T01:43:45;0.65;;;0.65;;
57573;SDS011;68988;49.000;21.242;2023-04-24T01:46:11;0.80;;;0.80;;
57573;SDS011;68988;49.000;21.242;2023-04-24T01:48:36;0.80;;;0.80;;
57573;SDS011;68988;49.000;21.242;2023-04-24T01:51:02;0.50;;;0.50;;
57573;SDS011;68988;49.000;21.242;2023-04-24T01:53:28;0.82;;;0.82;;
57573;SDS011;68988;49.000;21.242;2023-04-24T01:55:53;0.70;;;0.70;;
57573;SDS011;68988;49.000;21.242;2023-04-24T01:58:18;0.70;;;0.70;;
57573;SDS011;68988;49.000;21.242;2023-04-24T02:00:44;0.73;;;0.73;;
57573;SDS011;68988;49.000;21.242;2023-04-24T02:03:09;0.80;;;0.80;;
57573;SDS011;68988;49.000;21.242;2023-04-24T02:05:34;0.70;;;0.70;;
57573;SDS011;68988;49.000;21.242;2023-04-24T02:08:00;0.90;;;0.90;;
57573;SDS011;68988;49.000;21.242;2023-04-24T02:10:25;0.65;;;0.65;;
57573;SDS011;68988;49.000;21.242;2023-04-24T02:12:51;0.60;;;0.60;;
57573;SDS011;68988;49.000;21.242;2023-04-24T02:15:16;0.70;;;0.70;;
57573;SDS011;68988;49.000;21.242;2023-04-24T02:17:42;0.80;;;0.80;;
57573;SDS011;68988;49.000;21.242;2023-04-24T02:20:08;0.90;;;0.90;;
57573;SDS011;68988;49.000;21.242;2023-04-24T02:22:33;0.88;;;0.88;;
57573;SDS011;68988;49.000;21.242;2023-04-24T02:24:59;0.85;;;0.85;;
57573;SDS011;68988;49.000;21.242;2023-04-24T02:27:25;1.02;;;1.02;;
57573;SDS011;68988;49.000;21.242;2023-04-24T02:29:50;1.05;;;0.90;;
57573;SDS011;68988;49.000;21.242;2023-04-24T02:32:15;0.90;;;0.90;;
57573;SDS011;68988;49.000;21.242;2023-04-24T02:34:41;0.80;;;0.80;;
57573;SDS011;68988;49.000;21.242;2023-04-24T02:37:06;0.90;;;0.90;;
57573;SDS011;68988;49.000;21.242;2023-04-24T02:39:32;0.70;;;0.70;;
57573;SDS011;68988;49.000;21.242;2023-04-24T02:41:57;0.75;;;0.75;;
57573;SDS011;68988;49.000;21.242;2023-04-24T02:44:23;0.90;;;0.90;;
57573;SDS011;68988;49.000;21.242;2023-04-24T02:46:48;0.98;;;0.98;;
57573;SDS011;68988;49.000;21.242;2023-04-24T02:49:13;1.00;;;1.00;;
57573;SDS011;68988;49.000;21.242;2023-04-24T02:51:39;0.80;;;0.80;;
57573;SDS011;68988;49.000;21.242;2023-04-24T02:54:06;0.77;;;0.77;;
57573;SDS011;68988;49.000;21.242;2023-04-24T02:56:33;0.80;;;0.80;;
57573;SDS011;68988;49.000;21.242;2023-04-24T02:58:59;0.73;;;0.73;;
57573;SDS011;68988;49.000;21.242;2023-04-24T03:01:24;0.90;;;0.90;;
57573;SDS011;68988;49.000;21.242;2023-04-24T03:03:50;0.70;;;0.70;;
57573;SDS011;68988;49.000;21.242;2023-04-24T03:06:15;0.90;;;0.90;;
57573;SDS011;68988;49.000;21.242;2023-04-24T03:08:41;0.88;;;0.88;;
57573;SDS011;68988;49.000;21.242;2023-04-24T03:11:06;0.70;;;0.70;;
57573;SDS011;68988;49.000;21.242;2023-04-24T03:13:31;0.90;;;0.90;;
57573;SDS011;68988;49.000;21.242;2023-04-24T03:15:57;0.80;;;0.80;;
57573;SDS011;68988;49.000;21.242;2023-04-24T03:18:22;0.80;;;0.80;;
57573;SDS011;68988;49.000;21.242;2023-04-24T03:20:47;1.00;;;1.00;;
57573;SDS011;68988;49.000;21.242;2023-04-24T03:23:13;0.88;;;0.88;;
57573;SDS011;68988;49.000;21.242;2023-04-24T03:25:39;0.73;;;0.73;;
57573;SDS011;68988;49.000;21.242;2023-04-24T03:28:04;0.73;;;0.73;;
57573;SDS011;68988;49.000;21.242;2023-04-24T03:30:29;1.10;;;0.95;;
57573;SDS011;68988;49.000;21.242;2023-04-24T03:32:55;1.20;;;0.93;;
57573;SDS011;68988;49.000;21.242;2023-04-24T03:35:20;1.00;;;1.00;;
57573;SDS011;68988;49.000;21.242;2023-04-24T03:37:46;1.00;;;0.80;;
57573;SDS011;68988;49.000;21.242;2023-04-24T03:40:12;0.80;;;0.80;;
57573;SDS011;68988;49.000;21.242;2023-04-24T03:42:37;0.90;;;0.90;;
57573;SDS011;68988;49.000;21.242;2023-04-24T03:45:03;1.30;;;0.80;;
57573;SDS011;68988;49.000;21.242;2023-04-24T03:47:29;0.90;;;0.90;;
57573;SDS011;68988;49.000;21.242;2023-04-24T03:49:54;0.80;;;0.80;;
57573;SDS011;68988;49.000;21.242;2023-04-24T03:52:21;0.75;;;0.75;;
57573;SDS011;68988;49.000;21.242;2023-04-24T03:54:46;0.95;;;0.95;;
57573;SDS011;68988;49.000;21.242;2023-04-24T03:57:11;0.70;;;0.70;;
57573;SDS011;68988;49.000;21.242;2023-04-24T03:59:37;0.80;;;0.80;;
57573;SDS011;68988;49.000;21.242;2023-04-24T04:02:02;1.00;;;1.00;;
57573;SDS011;68988;49.000;21.242;2023-04-24T04:04:27;1.00;;;0.90;;
57573;SDS011;68988;49.000;21.242;2023-04-24T04:06:53;0.85;;;0.85;;
57573;SDS011;68988;49.000;21.242;2023-04-24T04:09:18;1.10;;;1.00;;
57573;SDS011;68988;49.000;21.242;2023-04-24T04:11:44;1.00;;;1.00;;
57573;SDS011;68988;49.000;21.242;2023-04-24T04:14:09;1.02;;;1.02;;
57573;SDS011;68988;49.000;21.242;2023-04-24T04:16:34;0.80;;;0.80;;
57573;SDS011;68988;49.000;21.242;2023-04-24T04:19:01;0.65;;;0.65;;
57573;SDS011;68988;49.000;21.242;2023-04-24T04:21:27;0.90;;;0.90;;
57573;SDS011;68988;49.000;21.242;2023-04-24T04:23:53;0.90;;;0.90;;
57573;SDS011;68988;49.000;21.242;2023-04-24T04:26:18;0.95;;;0.95;;
57573;SDS011;68988;49.000;21.242;2023-04-24T04:28:46;1.02;;;1.02;;
57573;SDS011;68988;49.000;21.242;2023-04-24T04:31:12;0.93;;;0.93;;
57573;SDS011;68988;49.000;21.242;2023-04-24T04:33:38;0.85;;;0.85;;
57573;SDS011;68988;49.000;21.242;2023-04-24T04:36:04;0.90;;;0.90;;
57573;SDS011;68988;49.000;21.242;2023-04-24T04:38:30;0.80;;;0.80;;
57573;SDS011;68988;49.000;21.242;2023-04-24T04:40:55;1.75;;;1.02;;
57573;SDS011;68988;49.000;21.242;2023-04-24T04:43:23;0.90;;;0.90;;
57573;SDS011;68988;49.000;21.242;2023-04-24T04:45:49;0.90;;;0.90;;
57573;SDS011;68988;49.000;21.242;2023-04-24T04:48:16;0.95;;;0.95;;
57573;SDS011;68988;49.000;21.242;2023-04-24T04:50:43;0.80;;;0.80;;
57573;SDS011;68988;49.000;21.242;2023-04-24T04:53:09;0.80;;;0.80;;
57573;SDS011;68988;49.000;21.242;2023-04-24T04:55:34;0.93;;;0.93;;
57573;SDS011;68988;49.000;21.242;2023-04-24T04:58:00;0.80;;;0.80;;
57573;SDS011;68988;49.000;21.242;2023-04-24T05:00:26;1.05;;;1.05;;
57573;SDS011;68988;49.000;21.242;2023-04-24T05:02:52;0.82;;;0.82;;
57573;SDS011;68988;49.000;21.242;2023-04-24T05:05:17;22.40;;;3.90;;
57573;SDS011;68988;49.000;21.242;2023-04-24T05:07:43;7.93;;;3.42;;
57573;SDS011;68988;49.000;21.242;2023-04-24T05:10:09;5.55;;;3.72;;
57573;SDS011;68988;49.000;21.242;2023-04-24T05:12:35;11.13;;;2.83;;
57573;SDS011;68988;49.000;21.242;2023-04-24T05:15:01;6.80;;;2.70;;
57573;SDS011;68988;49.000;21.242;2023-04-24T05:17:27;10.93;;;2.90;;
57573;SDS011;68988;49.000;21.242;2023-04-24T05:19:53;10.50;;;2.33;;
57573;SDS011;68988;49.000;21.242;2023-04-24T05:22:18;5.57;;;2.40;;
57573;SDS011;68988;49.000;21.242;2023-04-24T05:24:45;2.95;;;2.20;;
57573;SDS011;68988;49.000;21.242;2023-04-24T05:27:11;5.65;;;2.58;;
57573;SDS011;68988;49.000;21.242;2023-04-24T05:29:36;4.05;;;2.55;;
57573;SDS011;68988;49.000;21.242;2023-04-24T05:32:02;3.20;;;2.38;;
57573;SDS011;68988;49.000;21.242;2023-04-24T05:34:27;4.75;;;2.50;;
57573;SDS011;68988;49.000;21.242;2023-04-24T05:36:53;3.03;;;2.33;;
57573;SDS011;68988;49.000;21.242;2023-04-24T05:39:18;8.25;;;2.58;;
57573;SDS011;68988;49.000;21.242;2023-04-24T05:41:44;4.88;;;2.63;;
57573;SDS011;68988;49.000;21.242;2023-04-24T05:44:10;4.00;;;2.22;;
57573;SDS011;68988;49.000;21.242;2023-04-24T05:46:35;2.40;;;2.20;;
57573;SDS011;68988;49.000;21.242;2023-04-24T05:49:00;2.50;;;2.30;;
57573;SDS011;68988;49.000;21.242;2023-04-24T05:51:27;2.90;;;2.35;;
57573;SDS011;68988;49.000;21.242;2023-04-24T05:53:52;5.28;;;2.33;;
57573;SDS011;68988;49.000;21.242;2023-04-24T05:56:18;3.67;;;2.10;;
57573;SDS011;68988;49.000;21.242;2023-04-24T05:58:43;9.70;;;2.80;;
57573;SDS011;68988;49.000;21.242;2023-04-24T06:01:09;5.80;;;2.42;;
57573;SDS011;68988;49.000;21.242;2023-04-24T06:03:34;11.75;;;2.97;;
57573;SDS011;68988;49.000;21.242;2023-04-24T06:06:00;15.90;;;2.83;;
57573;SDS011;68988;49.000;21.242;2023-04-24T06:08:25;12.93;;;2.60;;
57573;SDS011;68988;49.000;21.242;2023-04-24T06:10:51;8.70;;;2.63;;
57573;SDS011;68988;49.000;21.242;2023-04-24T06:13:16;8.90;;;2.35;;
57573;SDS011;68988;49.000;21.242;2023-04-24T06:15:42;9.25;;;2.80;;
57573;SDS011;68988;49.000;21.242;2023-04-24T06:18:08;7.20;;;2.40;;
57573;SDS011;68988;49.000;21.242;2023-04-24T06:20:35;5.10;;;2.28;;
57573;SDS011;68988;49.000;21.242;2023-04-24T06:23:00;17.88;;;2.72;;
57573;SDS011;68988;49.000;21.242;2023-04-24T06:25:26;9.95;;;2.42;;
57573;SDS011;68988;49.000;21.242;2023-04-24T06:27:53;14.32;;;2.33;;
57573;SDS011;68988;49.000;21.242;2023-04-24T06:30:19;13.35;;;2.63;;
57573;SDS011;68988;49.000;21.242;2023-04-24T06:32:44;20.33;;;2.88;;
57573;SDS011;68988;49.000;21.242;2023-04-24T06:35:10;7.30;;;2.58;;
57573;SDS011;68988;49.000;21.242;2023-04-24T06:37:36;14.25;;;3.22;;
57573;SDS011;68988;49.000;21.242;2023-04-24T06:40:02;11.55;;;3.35;;
57573;SDS011;68988;49.000;21.242;2023-04-24T06:42:27;12.88;;;3.67;;
57573;SDS011;68988;49.000;21.242;2023-04-24T06:44:53;10.35;;;3.47;;
57573;SDS011;68988;49.000;21.242;2023-04-24T06:47:18;9.40;;;3.60;;
57573;SDS011;68988;49.000;21.242;2023-04-24T06:49:44;9.27;;;3.47;;
57573;SDS011;68988;49.000;21.242;2023-04-24T06:52:09;11.07;;;3.80;;
57573;SDS011;68988;49.000;21.242;2023-04-24T06:54:35;15.82;;;3.55;;
57573;SDS011;68988;49.000;21.242;2023-04-24T06:57:00;5.85;;;3.50;;
57573;SDS011;68988;49.000;21.242;2023-04-24T06:59:26;10.00;;;3.47;;
57573;SDS011;68988;49.000;21.242;2023-04-24T07:01:52;11.32;;;3.53;;
57573;SDS011;68988;49.000;21.242;2023-04-24T07:04:17;6.43;;;2.90;;
57573;SDS011;68988;49.000;21.242;2023-04-24T07:06:44;6.13;;;3.80;;
57573;SDS011;68988;49.000;21.242;2023-04-24T07:09:11;7.38;;;3.03;;
57573;SDS011;68988;49.000;21.242;2023-04-24T07:11:36;10.20;;;3.20;;
57573;SDS011;68988;49.000;21.242;2023-04-24T07:14:04;10.40;;;3.28;;
57573;SDS011;68988;49.000;21.242;2023-04-24T07:16:29;12.60;;;3.35;;
57573;SDS011;68988;49.000;21.242;2023-04-24T07:18:55;7.30;;;2.95;;
57573;SDS011;68988;49.000;21.242;2023-04-24T07:21:20;8.82;;;3.40;;
57573;SDS011;68988;49.000;21.242;2023-04-24T07:23:45;7.93;;;3.30;;
57573;SDS011;68988;49.000;21.242;2023-04-24T07:26:11;13.38;;;3.35;;
57573;SDS011;68988;49.000;21.242;2023-04-24T07:28:36;12.57;;;3.00;;
57573;SDS011;68988;49.000;21.242;2023-04-24T07:31:02;14.07;;;3.47;;
57573;SDS011;68988;49.000;21.242;2023-04-24T07:33:27;10.00;;;3.60;;
57573;SDS011;68988;49.000;21.242;2023-04-24T07:35:52;14.55;;;3.13;;
57573;SDS011;68988;49.000;21.242;2023-04-24T07:38:18;6.20;;;3.05;;
57573;SDS011;68988;49.000;21.242;2023-04-24T07:40:47;8.73;;;3.40;;
57573;SDS011;68988;49.000;21.242;2023-04-24T07:43:13;7.05;;;3.13;;
57573;SDS011;68988;49.000;21.242;2023-04-24T07:45:39;8.02;;;3.03;;
57573;SDS011;68988;49.000;21.242;2023-04-24T07:48:04;5.95;;;3.13;;
57573;SDS011;68988;49.000;21.242;2023-04-24T07:50:31;10.00;;;3.47;;
57573;SDS011;68988;49.000;21.242;2023-04-24T07:52:56;16.35;;;3.55;;
57573;SDS011;68988;49.000;21.242;2023-04-24T07:55:22;12.18;;;3.10;;
57573;SDS011;68988;49.000;21.242;2023-04-24T07:57:47;5.25;;;3.05;;
57573;SDS011;68988;49.000;21.242;2023-04-24T08:00:13;12.65;;;3.30;;
57573;SDS011;68988;49.000;21.242;2023-04-24T08:02:39;5.40;;;3.30;;
57573;SDS011;68988;49.000;21.242;2023-04-24T08:05:05;7.88;;;3.63;;
57573;SDS011;68988;49.000;21.242;2023-04-24T08:07:31;9.13;;;2.90;;
57573;SDS011;68988;49.000;21.242;2023-04-24T08:09:56;8.98;;;2.95;;
57573;SDS011;68988;49.000;21.242;2023-04-24T08:12:22;12.77;;;3.40;;
57573;SDS011;68988;49.000;21.242;2023-04-24T08:14:47;8.63;;;3.53;;
57573;SDS011;68988;49.000;21.242;2023-04-24T08:17:13;17.10;;;3.80;;
57573;SDS011;68988;49.000;21.242;2023-04-24T08:19:39;8.25;;;3.17;;
57573;SDS011;68988;49.000;21.242;2023-04-24T08:22:12;10.32;;;3.50;;
57573;SDS011;68988;49.000;21.242;2023-04-24T08:24:37;4.13;;;2.97;;
57573;SDS011;68988;49.000;21.242;2023-04-24T08:27:03;6.03;;;3.47;;
57573;SDS011;68988;49.000;21.242;2023-04-24T08:29:28;8.75;;;3.67;;
57573;SDS011;68988;49.000;21.242;2023-04-24T08:31:54;4.72;;;3.00;;
57573;SDS011;68988;49.000;21.242;2023-04-24T08:34:20;8.52;;;3.25;;
57573;SDS011;68988;49.000;21.242;2023-04-24T08:36:46;13.63;;;3.63;;
57573;SDS011;68988;49.000;21.242;2023-04-24T08:39:11;18.15;;;3.47;;
57573;SDS011;68988;49.000;21.242;2023-04-24T08:41:37;7.18;;;3.08;;
57573;SDS011;68988;49.000;21.242;2023-04-24T08:44:03;8.27;;;2.95;;
57573;SDS011;68988;49.000;21.242;2023-04-24T08:46:29;19.45;;;3.15;;
57573;SDS011;68988;49.000;21.242;2023-04-24T08:48:55;14.55;;;3.60;;
57573;SDS011;68988;49.000;21.242;2023-04-24T08:51:21;7.50;;;3.60;;
57573;SDS011;68988;49.000;21.242;2023-04-24T08:53:47;19.40;;;3.45;;
57573;SDS011;68988;49.000;21.242;2023-04-24T08:56:13;8.60;;;3.60;;
57573;SDS011;68988;49.000;21.242;2023-04-24T08:58:39;16.52;;;3.35;;
57573;SDS011;68988;49.000;21.242;2023-04-24T09:01:05;9.55;;;3.33;;
57573;SDS011;68988;49.000;21.242;2023-04-24T09:03:32;11.23;;;3.50;;
57573;SDS011;68988;49.000;21.242;2023-04-24T09:05:58;21.63;;;3.58;;
57573;SDS011;68988;49.000;21.242;2023-04-24T09:08:24;12.40;;;3.63;;
57573;SDS011;68988;49.000;21.242;2023-04-24T09:10:52;16.70;;;3.22;;
57573;SDS011;68988;49.000;21.242;2023-04-24T09:13:18;10.70;;;3.70;;
57573;SDS011;68988;49.000;21.242;2023-04-24T09:15:45;11.40;;;3.75;;
57573;SDS011;68988;49.000;21.242;2023-04-24T09:18:10;9.73;;;2.92;;
57573;SDS011;68988;49.000;21.242;2023-04-24T09:20:56;19.48;;;3.67;;
57573;SDS011;68988;49.000;21.242;2023-04-24T09:23:34;5.68;;;3.05;;
57573;SDS011;68988;49.000;21.242;2023-04-24T09:26:00;16.17;;;3.47;;
57573;SDS011;68988;49.000;21.242;2023-04-24T09:28:29;7.47;;;3.47;;
57573;SDS011;68988;49.000;21.242;2023-04-24T09:31:03;15.82;;;2.95;;
57573;SDS011;68988;49.000;21.242;2023-04-24T09:33:39;10.43;;;3.50;;
57573;SDS011;68988;49.000;21.242;2023-04-24T09:36:05;10.85;;;3.30;;
57573;SDS011;68988;49.000;21.242;2023-04-24T09:38:34;22.98;;;3.88;;
57573;SDS011;68988;49.000;21.242;2023-04-24T09:41:05;6.93;;;3.15;;
57573;SDS011;68988;49.000;21.242;2023-04-24T09:43:32;12.18;;;3.40;;
57573;SDS011;68988;49.000;21.242;2023-04-24T09:45:58;9.27;;;3.47;;
57573;SDS011;68988;49.000;21.242;2023-04-24T09:51:01;9.20;;;3.13;;
57573;SDS011;68988;49.000;21.242;2023-04-24T09:53:28;6.70;;;3.35;;
57573;SDS011;68988;49.000;21.242;2023-04-24T09:55:55;8.70;;;3.13;;
57573;SDS011;68988;49.000;21.242;2023-04-24T09:58:26;10.95;;;3.42;;
57573;SDS011;68988;49.000;21.242;2023-04-24T10:00:55;8.75;;;3.67;;
57573;SDS011;68988;49.000;21.242;2023-04-24T10:03:23;7.30;;;2.53;;
57573;SDS011;68988;49.000;21.242;2023-04-24T10:05:51;10.65;;;2.85;;
57573;SDS011;68988;49.000;21.242;2023-04-24T10:08:16;11.20;;;3.08;;
57573;SDS011;68988;49.000;21.242;2023-04-24T10:10:43;7.97;;;3.38;;
57573;SDS011;68988;49.000;21.242;2023-04-24T10:13:10;3.90;;;3.00;;
57573;SDS011;68988;49.000;21.242;2023-04-24T10:15:37;12.50;;;3.22;;
57573;SDS011;68988;49.000;21.242;2023-04-24T10:18:04;12.55;;;3.00;;
57573;SDS011;68988;49.000;21.242;2023-04-24T10:20:31;14.65;;;3.45;;
57573;SDS011;68988;49.000;21.242;2023-04-24T10:22:58;6.82;;;3.17;;
57573;SDS011;68988;49.000;21.242;2023-04-24T10:25:34;9.60;;;3.08;;
57573;SDS011;68988;49.000;21.242;2023-04-24T10:28:01;8.05;;;2.97;;
57573;SDS011;68988;49.000;21.242;2023-04-24T10:30:34;5.05;;;3.10;;
57573;SDS011;68988;49.000;21.242;2023-04-24T10:33:00;33.50;;;3.83;;
57573;SDS011;68988;49.000;21.242;2023-04-24T10:35:29;30.92;;;3.13;;
57573;SDS011;68988;49.000;21.242;2023-04-24T10:37:57;15.93;;;3.70;;
57573;SDS011;68988;49.000;21.242;2023-04-24T10:40:30;14.40;;;3.42;;
57573;SDS011;68988;49.000;21.242;2023-04-24T10:45:23;14.00;;;3.25;;
57573;SDS011;68988;49.000;21.242;2023-04-24T10:47:59;12.48;;;3.28;;
57573;SDS011;68988;49.000;21.242;2023-04-24T10:50:30;11.05;;;3.28;;
57573;SDS011;68988;49.000;21.242;2023-04-24T10:53:27;15.48;;;2.67;;
57573;SDS011;68988;49.000;21.242;2023-04-24T10:58:22;10.73;;;2.95;;
57573;SDS011;68988;49.000;21.242;2023-04-24T11:00:58;17.55;;;2.90;;
57573;SDS011;68988;49.000;21.242;2023-04-24T11:03:26;7.78;;;3.00;;
57573;SDS011;68988;49.000;21.242;2023-04-24T11:08:29;8.50;;;2.92;;
57573;SDS011;68988;49.000;21.242;2023-04-24T11:11:02;5.97;;;3.00;;
57573;SDS011;68988;49.000;21.242;2023-04-24T11:19:10;14.00;;;2.88;;
57573;SDS011;68988;49.000;21.242;2023-04-24T11:22:02;10.07;;;3.25;;
57573;SDS011;68988;49.000;21.242;2023-04-24T11:24:39;5.63;;;2.60;;
57573;SDS011;68988;49.000;21.242;2023-04-24T11:27:17;13.60;;;2.95;;
57573;SDS011;68988;49.000;21.242;2023-04-24T11:29:47;6.85;;;2.83;;
57573;SDS011;68988;49.000;21.242;2023-04-24T11:35:00;8.10;;;2.95;;
57573;SDS011;68988;49.000;21.242;2023-04-24T11:37:29;7.55;;;2.58;;
57573;SDS011;68988;49.000;21.242;2023-04-24T11:40:02;7.18;;;2.88;;
57573;SDS011;68988;49.000;21.242;2023-04-24T11:42:33;3.58;;;2.55;;
57573;SDS011;68988;49.000;21.242;2023-04-24T11:45:00;7.30;;;2.95;;
57573;SDS011;68988;49.000;21.242;2023-04-24T11:47:32;6.55;;;2.75;;
57573;SDS011;68988;49.000;21.242;2023-04-24T11:50:01;10.15;;;2.65;;
57573;SDS011;68988;49.000;21.242;2023-04-24T11:52:27;5.70;;;3.30;;
57573;SDS011;68988;49.000;21.242;2023-04-24T11:54:54;7.28;;;3.10;;
57573;SDS011;68988;49.000;21.242;2023-04-24T11:57:20;9.07;;;2.67;;
57573;SDS011;68988;49.000;21.242;2023-04-24T11:59:46;6.63;;;2.58;;
57573;SDS011;68988;49.000;21.242;2023-04-24T12:02:24;12.90;;;2.83;;
57573;SDS011;68988;49.000;21.242;2023-04-24T12:04:53;7.85;;;2.90;;
57573;SDS011;68988;49.000;21.242;2023-04-24T12:07:19;9.95;;;3.28;;
57573;SDS011;68988;49.000;21.242;2023-04-24T12:09:49;17.75;;;2.70;;
57573;SDS011;68988;49.000;21.242;2023-04-24T12:12:23;11.23;;;3.42;;
57573;SDS011;68988;49.000;21.242;2023-04-24T12:14:54;12.23;;;3.03;;
57573;SDS011;68988;49.000;21.242;2023-04-24T12:17:26;14.52;;;3.03;;
57573;SDS011;68988;49.000;21.242;2023-04-24T12:19:56;11.20;;;3.45;;
57573;SDS011;68988;49.000;21.242;2023-04-24T12:25:28;15.80;;;2.88;;
57573;SDS011;68988;49.000;21.242;2023-04-24T12:30:32;9.68;;;2.88;;
57573;SDS011;68988;49.000;21.242;2023-04-24T12:33:00;15.43;;;3.45;;
57573;SDS011;68988;49.000;21.242;2023-04-24T12:35:28;17.63;;;3.00;;
57573;SDS011;68988;49.000;21.242;2023-04-24T12:37:59;11.02;;;3.28;;
57573;SDS011;68988;49.000;21.242;2023-04-24T12:40:31;12.20;;;2.83;;
57573;SDS011;68988;49.000;21.242;2023-04-24T12:42:56;11.93;;;3.40;;
57573;SDS011;68988;49.000;21.242;2023-04-24T12:45:22;4.20;;;3.00;;
57573;SDS011;68988;49.000;21.242;2023-04-24T12:47:49;6.10;;;2.67;;
57573;SDS011;68988;49.000;21.242;2023-04-24T12:50:14;7.22;;;2.70;;
57573;SDS011;68988;49.000;21.242;2023-04-24T12:52:41;14.93;;;3.17;;
57573;SDS011;68988;49.000;21.242;2023-04-24T12:55:07;5.82;;;2.90;;
57573;SDS011;68988;49.000;21.242;2023-04-24T12:57:34;13.98;;;3.17;;
57573;SDS011;68988;49.000;21.242;2023-04-24T13:00:00;8.68;;;2.90;;
57573;SDS011;68988;49.000;21.242;2023-04-24T13:02:29;4.70;;;3.00;;
57573;SDS011;68988;49.000;21.242;2023-04-24T13:04:56;7.05;;;2.60;;
57573;SDS011;68988;49.000;21.242;2023-04-24T13:07:25;18.67;;;3.00;;
57573;SDS011;68988;49.000;21.242;2023-04-24T13:09:51;10.88;;;3.13;;
57573;SDS011;68988;49.000;21.242;2023-04-24T13:12:17;10.85;;;3.00;;
57573;SDS011;68988;49.000;21.242;2023-04-24T13:14:42;9.15;;;2.90;;
57573;SDS011;68988;49.000;21.242;2023-04-24T13:17:08;9.43;;;2.88;;
57573;SDS011;68988;49.000;21.242;2023-04-24T13:19:38;7.13;;;2.78;;
57573;SDS011;68988;49.000;21.242;2023-04-24T13:22:05;7.20;;;3.30;;
57573;SDS011;68988;49.000;21.242;2023-04-24T13:24:32;7.82;;;2.63;;
57573;SDS011;68988;49.000;21.242;2023-04-24T13:26:58;6.75;;;3.05;;
57573;SDS011;68988;49.000;21.242;2023-04-24T13:29:23;6.05;;;2.97;;
57573;SDS011;68988;49.000;21.242;2023-04-24T13:31:52;12.05;;;3.35;;
57573;SDS011;68988;49.000;21.242;2023-04-24T13:34:22;16.70;;;3.60;;
57573;SDS011;68988;49.000;21.242;2023-04-24T13:36:49;21.00;;;3.85;;
57573;SDS011;68988;49.000;21.242;2023-04-24T13:39:15;10.43;;;2.60;;
57573;SDS011;68988;49.000;21.242;2023-04-24T13:41:41;15.02;;;3.47;;
57573;SDS011;68988;49.000;21.242;2023-04-24T13:44:07;16.15;;;3.38;;
57573;SDS011;68988;49.000;21.242;2023-04-24T13:46:33;11.93;;;3.08;;
57573;SDS011;68988;49.000;21.242;2023-04-24T13:48:59;21.23;;;3.85;;
57573;SDS011;68988;49.000;21.242;2023-04-24T13:51:25;11.55;;;3.05;;
57573;SDS011;68988;49.000;21.242;2023-04-24T13:53:52;13.27;;;3.40;;
57573;SDS011;68988;49.000;21.242;2023-04-24T13:56:18;11.63;;;3.65;;
57573;SDS011;68988;49.000;21.242;2023-04-24T13:58:43;13.90;;;3.50;;
57573;SDS011;68988;49.000;21.242;2023-04-24T14:01:09;15.98;;;3.45;;
57573;SDS011;68988;49.000;21.242;2023-04-24T14:03:34;11.68;;;3.22;;
57573;SDS011;68988;49.000;21.242;2023-04-24T14:05:59;13.77;;;3.05;;
57573;SDS011;68988;49.000;21.242;2023-04-24T14:08:25;12.35;;;3.40;;
57573;SDS011;68988;49.000;21.242;2023-04-24T14:10:50;12.82;;;3.30;;
57573;SDS011;68988;49.000;21.242;2023-04-24T14:13:16;20.30;;;3.42;;
57573;SDS011;68988;49.000;21.242;2023-04-24T14:15:42;25.27;;;3.67;;
57573;SDS011;68988;49.000;21.242;2023-04-24T14:18:08;12.20;;;3.08;;
57573;SDS011;68988;49.000;21.242;2023-04-24T14:20:33;9.45;;;3.20;;
57573;SDS011;68988;49.000;21.242;2023-04-24T14:22:58;12.80;;;3.47;;
57573;SDS011;68988;49.000;21.242;2023-04-24T14:25:24;11.38;;;3.63;;
57573;SDS011;68988;49.000;21.242;2023-04-24T14:27:50;6.75;;;3.03;;
57573;SDS011;68988;49.000;21.242;2023-04-24T14:30:15;8.00;;;2.95;;
57573;SDS011;68988;49.000;21.242;2023-04-24T14:32:41;5.75;;;3.38;;
57573;SDS011;68988;49.000;21.242;2023-04-24T14:35:06;7.80;;;3.58;;
57573;SDS011;68988;49.000;21.242;2023-04-24T14:37:32;8.63;;;3.15;;
57573;SDS011;68988;49.000;21.242;2023-04-24T14:39:58;5.35;;;2.92;;
57573;SDS011;68988;49.000;21.242;2023-04-24T14:42:24;9.30;;;3.20;;
57573;SDS011;68988;49.000;21.242;2023-04-24T14:44:49;6.57;;;2.97;;
57573;SDS011;68988;49.000;21.242;2023-04-24T14:47:15;18.42;;;4.05;;
57573;SDS011;68988;49.000;21.242;2023-04-24T14:49:42;11.15;;;3.40;;
57573;SDS011;68988;49.000;21.242;2023-04-24T14:52:08;12.77;;;3.15;;